Time;durP1;ratioP1;P1;durP2;ratioP2;P2;SDS_P1;SDS_P2;PMS_P1;PMS_P2;Temp;Humidity;BMP_temperature;BMP_pressure;BME280_temperature;BME280_humidity;BME280_pressure;Samples;Min_cycle;Max_cycle;Signal;HPM_P1;HPM_P2
2023/07/02 00:00:00;;;;;;;6.75;1.67;;;;;;;14.00;100.00;99255.34;5031180;28;20136;-72
2023/07/02 00:02:27;;;;;;;8.93;2.00;;;;;;;14.08;100.00;99246.03;5042321;28;20095;-73
2023/07/02 00:04:54;;;;;;;8.80;1.70;;;;;;;14.05;100.00;99255.00;5042485;28;20754;-73
2023/07/02 00:07:21;;;;;;;5.85;1.60;;;;;;;13.93;100.00;99248.03;5034538;28;20053;-72
2023/07/02 00:09:48;;;;;;;3.72;1.20;;;;;;;13.86;100.00;99240.63;5025812;28;20057;-73
2023/07/02 00:12:15;;;;;;;4.13;1.30;;;;;;;13.80;100.00;99251.59;5037188;28;20055;-73
2023/07/02 00:14:42;;;;;;;5.68;1.52;;;;;;;13.75;100.00;99229.22;5046839;28;20068;-73
2023/07/02 00:17:12;;;;;;;6.72;1.40;;;;;;;13.83;100.00;99238.22;5049740;28;20124;-73
2023/07/02 00:19:43;;;;;;;6.93;1.70;;;;;;;13.55;100.00;99234.16;5035549;28;20050;-73
2023/07/02 00:22:09;;;;;;;6.20;1.50;;;;;;;13.54;100.00;99243.00;5049874;28;20076;-73
2023/07/02 00:24:37;;;;;;;7.22;1.67;;;;;;;13.62;100.00;99235.38;5050593;28;20132;-73
2023/07/02 00:27:04;;;;;;;6.63;1.50;;;;;;;13.65;100.00;99240.44;5032224;28;20088;-73
2023/07/02 00:29:31;;;;;;;5.70;1.58;;;;;;;13.80;100.00;99238.44;5043788;28;20052;-73
2023/07/02 00:31:57;;;;;;;6.75;1.50;;;;;;;13.90;100.00;99241.22;5036278;28;20506;-73
2023/07/02 00:34:24;;;;;;;7.47;1.45;;;;;;;13.77;100.00;99246.53;5033046;28;20052;-73
2023/07/02 00:36:52;;;;;;;6.25;1.60;;;;;;;13.60;100.00;99244.34;5034037;28;20053;-73
2023/07/02 00:39:18;;;;;;;6.82;1.30;;;;;;;13.62;100.00;99243.28;5039015;28;20045;-73
2023/07/02 00:41:46;;;;;;;4.60;1.38;;;;;;;13.75;100.00;99230.03;5040978;28;20506;-73
2023/07/02 00:44:13;;;;;;;4.90;1.50;;;;;;;13.79;100.00;99226.25;5033872;28;20487;-73
2023/07/02 00:46:40;;;;;;;4.70;1.33;;;;;;;13.74;100.00;99236.28;5033792;28;20049;-73
2023/07/02 00:49:09;;;;;;;5.22;1.33;;;;;;;13.69;100.00;99238.41;5040858;28;20103;-73
2023/07/02 00:51:37;;;;;;;3.47;1.20;;;;;;;13.70;100.00;99237.44;5038442;28;20061;-73
2023/07/02 00:54:04;;;;;;;5.40;1.77;;;;;;;13.74;100.00;99244.16;5047015;28;20053;-73
2023/07/02 00:56:31;;;;;;;7.25;1.60;;;;;;;13.68;100.00;99236.72;5038441;28;20132;-74
2023/07/02 00:58:58;;;;;;;7.05;1.50;;;;;;;13.65;100.00;99244.81;5043872;28;20048;-74
2023/07/02 01:01:31;;;;;;;9.38;1.75;;;;;;;13.73;100.00;99255.63;5053855;28;20463;-74
2023/07/02 01:04:03;;;;;;;3.95;1.10;;;;;;;13.72;100.00;99240.78;5043845;28;20049;-73
2023/07/02 01:06:32;;;;;;;5.50;1.40;;;;;;;13.65;100.00;99236.94;5032201;28;20141;-73
2023/07/02 01:09:02;;;;;;;6.38;2.03;;;;;;;13.65;100.00;99243.06;5033472;28;20045;-73
2023/07/02 01:11:45;;;;;;;3.17;1.20;;;;;;;13.69;100.00;99248.94;5035286;28;20053;-74
2023/07/02 01:14:33;;;;;;;7.53;1.63;;;;;;;13.52;100.00;99231.75;5053613;28;20104;-73
2023/07/02 01:17:03;;;;;;;4.07;1.30;;;;;;;13.38;100.00;99245.09;5048254;28;20049;-73
2023/07/02 01:19:53;;;;;;;7.13;2.30;;;;;;;13.39;100.00;99233.63;5044662;28;20106;-73
2023/07/02 01:22:27;;;;;;;5.40;1.40;;;;;;;13.27;100.00;99243.19;5020588;28;20054;-74
2023/07/02 01:24:55;;;;;;;4.35;1.30;;;;;;;13.35;100.00;99247.91;5034687;28;20041;-73
2023/07/02 01:27:22;;;;;;;5.28;1.55;;;;;;;13.28;100.00;99242.25;5037253;28;20535;-72
2023/07/02 01:29:52;;;;;;;3.30;1.40;;;;;;;13.46;100.00;99251.47;5027069;28;20156;-73
2023/07/02 01:32:20;;;;;;;4.05;1.33;;;;;;;13.31;100.00;99249.94;5032834;28;20050;-74
2023/07/02 01:34:53;;;;;;;4.85;1.30;;;;;;;13.37;100.00;99254.75;5032534;28;20057;-74
2023/07/02 01:37:20;;;;;;;9.82;1.60;;;;;;;13.50;100.00;99252.06;5032460;28;20503;-74
2023/07/02 01:39:47;;;;;;;5.05;1.27;;;;;;;13.41;100.00;99256.22;5023276;28;20053;-73
2023/07/02 01:42:16;;;;;;;7.18;2.25;;;;;;;13.46;100.00;99258.50;5033022;28;20049;-73
2023/07/02 01:44:44;;;;;;;3.10;1.10;;;;;;;13.46;100.00;99264.59;5032093;28;20042;-74
2023/07/02 01:47:10;;;;;;;4.03;1.48;;;;;;;13.42;100.00;99264.94;5023102;28;20369;-73
2023/07/02 01:49:39;;;;;;;3.67;1.40;;;;;;;13.41;100.00;99265.91;5032030;28;20049;-74
2023/07/02 01:52:06;;;;;;;4.78;1.63;;;;;;;13.12;100.00;99253.03;5021857;28;20057;-73
2023/07/02 01:54:34;;;;;;;8.63;1.58;;;;;;;13.22;100.00;99282.13;5030651;28;20395;-73
2023/07/02 01:57:01;;;;;;;7.35;1.50;;;;;;;13.13;100.00;99272.28;5032095;28;20485;-73
2023/07/02 01:59:27;;;;;;;4.65;1.40;;;;;;;13.37;100.00;99269.69;5028753;28;20065;-74
2023/07/02 02:01:54;;;;;;;4.07;1.05;;;;;;;13.23;100.00;99265.41;5014290;28;20488;-73
2023/07/02 02:04:21;;;;;;;3.80;1.20;;;;;;;13.23;100.00;99268.03;5026400;28;20395;-74
2023/07/02 02:06:48;;;;;;;4.43;1.38;;;;;;;13.38;100.00;99266.09;5019561;28;20057;-73
2023/07/02 02:09:14;;;;;;;7.57;1.42;;;;;;;13.19;100.00;99266.56;5032480;28;20071;-74
2023/07/02 02:11:44;;;;;;;4.90;1.80;;;;;;;13.05;100.00;99268.41;5020210;28;20054;-73
2023/07/02 02:14:10;;;;;;;5.55;1.30;;;;;;;13.20;100.00;99270.88;5011288;28;20085;-73
2023/07/02 02:16:37;;;;;;;5.25;1.40;;;;;;;13.26;100.00;99268.66;5016979;28;20453;-73
2023/07/02 02:19:04;;;;;;;6.10;1.52;;;;;;;13.14;100.00;99272.16;5031053;28;20531;-74
2023/07/02 02:21:32;;;;;;;4.78;1.30;;;;;;;13.23;100.00;99266.25;5018240;28;20479;-74
2023/07/02 02:23:58;;;;;;;5.15;1.35;;;;;;;13.28;100.00;99271.19;5027756;28;20160;-74
2023/07/02 02:26:25;;;;;;;4.75;1.25;;;;;;;13.00;100.00;99267.88;5015517;28;20053;-74
2023/07/02 02:28:52;;;;;;;4.13;1.30;;;;;;;13.11;100.00;99273.22;5013492;28;20069;-72
2023/07/02 02:31:19;;;;;;;5.53;1.38;;;;;;;13.09;100.00;99256.72;5015551;28;20045;-73
2023/07/02 02:33:46;;;;;;;5.55;1.20;;;;;;;13.14;100.00;99272.16;5012583;28;20400;-73
2023/07/02 02:36:13;;;;;;;3.15;1.27;;;;;;;13.15;100.00;99265.09;5013787;28;20052;-72
2023/07/02 02:38:39;;;;;;;5.20;1.40;;;;;;;13.05;100.00;99267.53;5030820;28;20050;-72
2023/07/02 02:41:08;;;;;;;4.78;1.20;;;;;;;13.01;100.00;99260.84;5019879;28;20049;-73
2023/07/02 02:43:35;;;;;;;8.98;2.05;;;;;;;13.08;100.00;99262.06;5016297;28;20538;-73
2023/07/02 02:46:02;;;;;;;6.00;1.40;;;;;;;13.07;100.00;99256.00;5011708;28;20058;-73
2023/07/02 02:48:28;;;;;;;4.78;1.30;;;;;;;13.04;100.00;99258.00;5022356;28;20056;-73
2023/07/02 02:50:55;;;;;;;5.47;1.60;;;;;;;12.98;100.00;99255.78;5025108;28;20057;-73
2023/07/02 02:53:22;;;;;;;4.43;1.58;;;;;;;13.02;100.00;99259.91;5028687;28;20384;-73
2023/07/02 02:55:48;;;;;;;3.13;1.20;;;;;;;12.96;100.00;99255.06;5024778;28;20085;-73
2023/07/02 02:58:15;;;;;;;7.60;1.55;;;;;;;12.82;100.00;99275.28;5023298;28;20136;-73
2023/07/02 03:00:45;;;;;;;7.28;1.33;;;;;;;12.76;100.00;99273.06;5012517;28;20053;-74
2023/07/02 03:03:13;;;;;;;2.95;1.17;;;;;;;12.73;100.00;99274.13;5010887;28;20133;-74
2023/07/02 03:05:40;;;;;;;5.07;1.60;;;;;;;12.77;100.00;99268.69;5013601;28;20054;-74
2023/07/02 03:08:07;;;;;;;4.65;1.55;;;;;;;12.84;100.00;99262.88;5020891;28;20091;-74
2023/07/02 03:10:34;;;;;;;4.30;1.20;;;;;;;13.08;100.00;99270.81;5012121;28;20081;-74
2023/07/02 03:13:01;;;;;;;6.97;1.60;;;;;;;12.84;100.00;99276.00;5026619;28;20068;-74
2023/07/02 03:15:27;;;;;;;7.93;1.60;;;;;;;12.63;100.00;99269.63;5012052;28;20081;-73
2023/07/02 03:17:54;;;;;;;6.88;1.70;;;;;;;12.56;100.00;99269.22;5014802;28;20049;-73
2023/07/02 03:20:21;;;;;;;6.00;1.50;;;;;;;12.75;100.00;99270.53;5021346;28;20112;-73
2023/07/02 03:22:48;;;;;;;8.15;1.75;;;;;;;12.88;100.00;99272.22;5027528;28;20491;-73
2023/07/02 03:25:15;;;;;;;7.20;2.08;;;;;;;12.70;100.00;99263.84;5019665;28;20037;-74
2023/07/02 03:27:42;;;;;;;6.55;1.70;;;;;;;12.63;100.00;99278.34;5015641;28;20137;-74
2023/07/02 03:30:09;;;;;;;7.72;1.77;;;;;;;12.76;100.00;99280.13;5019243;28;20053;-74
2023/07/02 03:32:36;;;;;;;7.15;1.40;;;;;;;12.78;100.00;99280.84;5031032;28;20128;-74
2023/07/02 03:35:03;;;;;;;8.30;2.45;;;;;;;12.81;100.00;99291.16;5021309;28;20381;-73
2023/07/02 03:37:30;;;;;;;7.97;1.50;;;;;;;12.78;100.00;99283.47;5030349;28;20128;-74
2023/07/02 03:39:58;;;;;;;6.43;2.05;;;;;;;12.50;100.00;99286.25;5030966;28;20055;-74
2023/07/02 03:42:25;;;;;;;7.00;1.73;;;;;;;12.49;100.00;99302.09;5020157;28;20527;-74
2023/07/02 03:44:52;;;;;;;4.03;1.58;;;;;;;12.54;100.00;99297.38;5023003;28;20038;-74
2023/07/02 03:47:19;;;;;;;3.90;1.40;;;;;;;12.72;100.00;99290.84;5018890;28;20045;-74
2023/07/02 03:49:47;;;;;;;6.25;2.00;;;;;;;12.82;100.00;99290.19;5044980;28;20045;-75
2023/07/02 03:52:14;;;;;;;4.85;1.40;;;;;;;12.76;100.00;99296.72;5010939;28;20052;-74
2023/07/02 03:54:41;;;;;;;7.03;1.58;;;;;;;12.76;100.00;99294.09;5024751;28;20084;-74
2023/07/02 03:57:07;;;;;;;5.50;1.52;;;;;;;12.74;100.00;99282.84;5030979;28;20053;-74
2023/07/02 03:59:34;;;;;;;5.78;1.48;;;;;;;12.83;100.00;99290.06;5018854;28;20132;-74
2023/07/02 04:02:01;;;;;;;6.70;1.63;;;;;;;12.79;100.00;99285.16;5012006;28;20054;-75
2023/07/02 04:04:28;;;;;;;9.40;1.73;;;;;;;12.98;100.00;99284.69;5028582;28;20061;-74
2023/07/02 04:06:55;;;;;;;5.95;1.60;;;;;;;12.83;100.00;99281.38;5020618;28;20471;-74
2023/07/02 04:09:21;;;;;;;5.43;1.55;;;;;;;12.78;100.00;99280.84;5030117;28;20495;-74
2023/07/02 04:11:48;;;;;;;7.38;1.75;;;;;;;12.78;100.00;99268.53;5015089;28;20371;-73
2023/07/02 04:14:15;;;;;;;7.50;2.00;;;;;;;12.95;100.00;99279.69;5014669;28;20038;-72
2023/07/02 04:16:45;;;;;;;4.75;1.60;;;;;;;13.74;100.00;99286.25;5017329;28;20057;-73
2023/07/02 04:19:12;;;;;;;6.20;1.67;;;;;;;13.95;100.00;99280.34;5033343;28;20046;-73
2023/07/02 04:21:39;;;;;;;5.20;1.65;;;;;;;14.64;100.00;99282.16;5021716;28;20049;-73
2023/07/02 04:24:06;;;;;;;6.32;1.50;;;;;;;14.95;100.00;99276.19;5020299;28;20404;-74
2023/07/02 04:26:33;;;;;;;5.18;1.33;;;;;;;15.23;100.00;99288.94;5014591;28;20511;-74
2023/07/02 04:29:20;;;;;;;2.92;1.08;;;;;;;15.63;100.00;99283.94;5028712;28;20049;-74
2023/07/02 04:31:47;;;;;;;4.85;1.42;;;;;;;15.71;100.00;99280.69;5033160;28;20059;-74
2023/07/02 04:34:14;;;;;;;4.63;1.40;;;;;;;16.22;100.00;99276.47;5034611;28;20380;-74
2023/07/02 04:36:40;;;;;;;4.85;1.20;;;;;;;16.02;100.00;99284.25;5030726;28;20064;-74
2023/07/02 04:39:08;;;;;;;4.10;1.30;;;;;;;16.44;100.00;99284.25;5014415;28;20141;-74
2023/07/02 04:41:35;;;;;;;3.50;1.00;;;;;;;16.44;100.00;99284.25;5030483;28;20052;-74
2023/07/02 04:44:02;;;;;;;7.85;1.75;;;;;;;16.66;100.00;99288.56;5029328;28;20055;-74
2023/07/02 04:46:29;;;;;;;5.63;1.20;;;;;;;16.55;100.00;99282.50;5032658;28;20053;-74
2023/07/02 04:48:56;;;;;;;4.57;1.20;;;;;;;17.10;100.00;99290.13;5033853;28;20352;-74
2023/07/02 04:51:23;;;;;;;5.93;1.30;;;;;;;16.95;100.00;99272.00;5044885;28;20056;-74
2023/07/02 04:53:50;;;;;;;5.20;1.30;;;;;;;17.49;100.00;99284.94;5032234;28;20132;-74
2023/07/02 04:56:16;;;;;;;4.25;1.27;;;;;;;17.54;100.00;99288.00;5029181;28;20141;-74
2023/07/02 04:58:43;;;;;;;4.63;1.15;;;;;;;17.10;100.00;99282.19;5033628;28;20064;-74
2023/07/02 05:01:10;;;;;;;6.20;1.30;;;;;;;16.25;100.00;99284.16;5033711;28;20499;-74
2023/07/02 05:03:38;;;;;;;5.05;1.00;;;;;;;15.73;100.00;99282.22;5020247;28;20081;-74
2023/07/02 05:06:05;;;;;;;5.68;1.40;;;;;;;15.87;100.00;99289.03;5027135;28;20128;-74
2023/07/02 05:08:31;;;;;;;5.00;1.13;;;;;;;15.56;100.00;99275.69;5021237;28;20096;-74
2023/07/02 05:10:58;;;;;;;6.30;1.42;;;;;;;15.44;100.00;99276.69;5027334;28;20045;-74
2023/07/02 05:13:25;;;;;;;6.13;1.88;;;;;;;15.09;100.00;99275.09;5023392;28;20107;-73
2023/07/02 05:15:51;;;;;;;5.90;1.40;;;;;;;14.88;100.00;99274.16;5030548;28;20499;-74
2023/07/02 05:18:18;;;;;;;5.50;1.40;;;;;;;14.84;100.00;99276.19;5021995;28;20051;-74
2023/07/02 05:20:45;;;;;;;4.50;1.27;;;;;;;14.79;100.00;99287.09;5033321;28;20057;-74
2023/07/02 05:23:12;;;;;;;2.88;1.10;;;;;;;15.40;100.00;99266.50;5032889;28;20045;-73
2023/07/02 05:25:38;;;;;;;4.13;1.30;;;;;;;16.24;100.00;99285.97;5032931;28;20136;-74
2023/07/02 05:28:05;;;;;;;4.10;1.27;;;;;;;16.64;100.00;99279.06;5018838;28;20049;-74
2023/07/02 05:30:32;;;;;;;3.20;1.27;;;;;;;16.58;100.00;99282.25;5032908;28;20059;-74
2023/07/02 05:32:58;;;;;;;5.90;1.30;;;;;;;16.91;100.00;99278.53;5018180;28;20053;-74
2023/07/02 05:35:25;;;;;;;3.15;1.10;;;;;;;17.60;100.00;99288.28;5017394;28;20484;-74
2023/07/02 05:37:52;;;;;;;5.28;1.25;;;;;;;17.04;100.00;99273.84;5026048;28;20056;-74
2023/07/02 05:40:18;;;;;;;3.38;1.20;;;;;;;17.79;100.00;99271.56;5033174;28;20045;-74
2023/07/02 05:42:45;;;;;;;4.75;1.20;;;;;;;17.88;100.00;99285.81;5033269;28;20056;-74
2023/07/02 05:45:12;;;;;;;4.65;1.10;;;;;;;18.10;100.00;99282.03;5032618;28;20054;-75
2023/07/02 05:47:39;;;;;;;3.15;1.17;;;;;;;18.30;100.00;99274.06;5032666;28;20088;-74
2023/07/02 05:50:07;;;;;;;2.95;0.90;;;;;;;18.73;100.00;99288.56;5031690;28;20042;-74
2023/07/02 05:52:34;;;;;;;3.83;1.10;;;;;;;18.67;100.00;99282.03;5030110;28;20455;-74
2023/07/02 05:55:00;;;;;;;4.57;1.20;;;;;;;18.69;100.00;99271.28;5027383;28;20038;-74
2023/07/02 05:57:27;;;;;;;5.15;1.10;;;;;;;19.09;100.00;99294.03;5027803;28;20482;-74
2023/07/02 05:59:54;;;;;;;4.07;1.50;;;;;;;18.95;100.00;99287.41;5018671;28;20525;-74
2023/07/02 06:02:21;;;;;;;6.22;1.20;;;;;;;19.21;100.00;99306.13;5016848;28;20428;-74
2023/07/02 06:04:47;;;;;;;7.68;1.60;;;;;;;18.77;100.00;99292.59;5015821;28;20042;-74
2023/07/02 06:07:14;;;;;;;3.83;1.08;;;;;;;19.47;100.00;99294.78;5023833;28;20041;-73
2023/07/02 06:09:41;;;;;;;5.15;1.00;;;;;;;19.40;100.00;99297.19;5015257;28;20045;-74
2023/07/02 06:12:08;;;;;;;6.72;1.30;;;;;;;19.54;100.00;99290.53;5013727;28;20543;-74
2023/07/02 06:14:34;;;;;;;4.57;1.20;;;;;;;19.04;100.00;99285.69;5018995;28;20446;-74
2023/07/02 06:17:05;;;;;;;3.10;1.10;;;;;;;19.16;100.00;99287.16;5029924;28;20053;-74
2023/07/02 06:19:32;;;;;;;5.22;1.08;;;;;;;18.97;98.99;99261.56;5031639;28;20057;-74
2023/07/02 06:21:59;;;;;;;2.83;1.08;;;;;;;19.14;99.88;99297.06;5032031;28;20075;-74
2023/07/02 06:24:26;;;;;;;4.22;0.98;;;;;;;19.38;98.80;99290.38;5018157;28;20056;-74
2023/07/02 06:26:53;;;;;;;3.95;1.10;;;;;;;19.57;97.89;99284.94;5030914;28;20499;-74
2023/07/02 06:29:21;;;;;;;5.80;1.10;;;;;;;19.82;96.63;99277.22;5031934;28;20045;-74
2023/07/02 06:31:47;;;;;;;5.28;0.95;;;;;;;19.96;92.85;99282.00;5028187;28;20057;-74
2023/07/02 06:34:14;;;;;;;5.63;1.25;;;;;;;19.64;95.41;99287.81;5022680;28;20044;-74
2023/07/02 06:36:41;;;;;;;4.82;1.38;;;;;;;19.67;91.85;99288.34;5020772;28;20132;-74
2023/07/02 06:39:11;;;;;;;4.18;1.02;;;;;;;19.44;90.71;99276.50;5015177;28;20046;-74
2023/07/02 06:41:38;;;;;;;3.67;1.05;;;;;;;19.71;90.87;99287.06;5033799;28;20419;-73
2023/07/02 06:44:04;;;;;;;5.72;1.05;;;;;;;20.07;94.16;99289.69;5024345;28;20049;-73
2023/07/02 06:46:32;;;;;;;4.07;1.08;;;;;;;20.11;89.66;99292.88;5018953;28;20050;-73
2023/07/02 06:48:59;;;;;;;5.88;1.05;;;;;;;19.72;83.30;99288.72;5043077;28;20099;-73
2023/07/02 06:51:26;;;;;;;4.82;1.00;;;;;;;19.21;93.61;99281.38;5022412;28;20057;-74
2023/07/02 06:53:53;;;;;;;4.10;1.45;;;;;;;20.09;91.55;99287.72;5029023;28;20049;-73
2023/07/02 06:56:20;;;;;;;4.55;0.80;;;;;;;19.21;86.27;99279.59;5025479;28;20132;-73
2023/07/02 06:58:47;;;;;;;3.83;0.90;;;;;;;19.01;96.85;99267.41;5026351;28;20049;-73
2023/07/02 07:01:13;;;;;;;6.53;1.10;;;;;;;19.63;89.79;99256.94;5025645;28;20430;-73
2023/07/02 07:03:40;;;;;;;3.80;1.02;;;;;;;20.01;83.51;99271.75;5024526;28;20050;-74
2023/07/02 07:06:07;;;;;;;5.35;1.10;;;;;;;20.01;88.79;99268.22;5018179;28;20057;-73
2023/07/02 07:08:37;;;;;;;6.57;1.23;;;;;;;19.56;85.33;99259.34;5026897;28;20049;-74
2023/07/02 07:11:04;;;;;;;4.97;1.08;;;;;;;19.31;87.10;99250.31;5023070;28;20049;-74
2023/07/02 07:13:31;;;;;;;3.08;0.82;;;;;;;19.76;88.40;99262.75;5011675;28;20133;-73
2023/07/02 07:15:58;;;;;;;3.47;0.90;;;;;;;19.79;84.66;99250.97;5019414;28;20120;-73
2023/07/02 07:18:24;;;;;;;4.32;1.10;;;;;;;19.63;81.47;99233.88;5011884;28;20053;-73
2023/07/02 07:20:52;;;;;;;5.07;0.95;;;;;;;19.77;85.28;99243.16;5013182;28;20050;-73
2023/07/02 07:23:19;;;;;;;8.10;1.13;;;;;;;19.95;79.76;99253.75;5011001;28;20500;-73
2023/07/02 07:25:46;;;;;;;4.65;1.08;;;;;;;19.48;81.23;99249.50;5010904;28;20137;-73
2023/07/02 07:28:15;;;;;;;5.57;0.93;;;;;;;20.20;80.20;99254.78;5024181;28;20167;-74
2023/07/02 07:30:43;;;;;;;7.80;1.50;;;;;;;19.68;81.85;99254.66;5028178;28;20107;-73
2023/07/02 07:33:10;;;;;;;4.05;0.88;;;;;;;19.81;82.98;99262.25;5024994;28;20055;-73
2023/07/02 07:35:37;;;;;;;4.50;1.10;;;;;;;20.05;81.07;99257.16;5021833;28;20108;-74
2023/07/02 07:38:04;;;;;;;6.80;1.13;;;;;;;19.82;81.49;99264.78;5014316;28;20046;-73
2023/07/02 07:40:30;;;;;;;5.03;1.23;;;;;;;19.84;82.39;99273.41;5019181;28;20488;-74
2023/07/02 07:42:57;;;;;;;9.30;1.20;;;;;;;19.97;82.56;99277.50;5019923;28;20045;-74
2023/07/02 07:45:24;;;;;;;5.18;1.08;;;;;;;20.04;80.71;99262.63;5024577;28;20056;-73
2023/07/02 07:47:51;;;;;;;4.80;1.20;;;;;;;20.45;76.86;99270.84;5014108;28;20137;-73
2023/07/02 07:50:18;;;;;;;3.60;0.80;;;;;;;20.63;76.23;99287.63;5010377;28;20096;-73
2023/07/02 07:52:44;;;;;;;5.22;1.23;;;;;;;19.78;75.96;99279.34;5021417;28;20103;-73
2023/07/02 07:55:11;;;;;;;4.20;1.20;;;;;;;19.24;78.65;99289.06;5014925;28;20048;-74
2023/07/02 07:57:38;;;;;;;5.32;1.48;;;;;;;19.00;83.60;99295.75;5029397;28;20053;-73
2023/07/02 08:00:09;;;;;;;4.50;1.00;;;;;;;19.21;84.90;99294.66;5019897;28;20565;-74
2023/07/02 08:02:36;;;;;;;3.85;1.00;;;;;;;18.66;85.13;99300.72;5014930;28;20064;-73
2023/07/02 08:05:04;;;;;;;7.70;1.25;;;;;;;18.87;86.62;99319.94;5026194;28;20042;-74
2023/07/02 08:07:32;;;;;;;5.65;1.00;;;;;;;18.93;89.70;99319.38;5025822;28;20132;-73
2023/07/02 08:10:00;;;;;;;4.20;1.10;;;;;;;19.72;84.00;99304.66;5045243;28;20061;-73
2023/07/02 08:12:28;;;;;;;2.80;0.90;;;;;;;19.99;83.92;99313.56;5029525;28;20050;-74
2023/07/02 08:14:56;;;;;;;4.40;1.10;;;;;;;20.01;79.92;99314.25;5018475;28;20406;-74
2023/07/02 08:17:22;;;;;;;5.75;1.10;;;;;;;20.27;76.58;99313.44;5029664;28;20102;-74
2023/07/02 08:19:49;;;;;;;6.38;1.20;;;;;;;19.91;77.90;99302.88;5030393;28;20475;-74
2023/07/02 08:22:16;;;;;;;5.28;1.25;;;;;;;20.08;75.87;99311.81;5025904;28;20049;-74
2023/07/02 08:24:43;;;;;;;4.82;1.10;;;;;;;20.14;71.85;99300.56;5024871;28;20060;-74
2023/07/02 08:27:13;;;;;;;3.40;1.00;;;;;;;19.53;79.72;99287.06;5027586;28;20060;-75
2023/07/02 08:29:40;;;;;;;5.55;1.13;;;;;;;19.03;77.10;99290.13;5025942;28;20053;-74
2023/07/02 08:32:07;;;;;;;6.03;1.50;;;;;;;19.54;78.33;99293.19;5021034;28;20381;-74
2023/07/02 08:34:34;;;;;;;5.90;1.42;;;;;;;19.73;80.07;99273.63;5015154;28;20050;-74
2023/07/02 08:37:01;;;;;;;4.97;1.40;;;;;;;19.55;76.32;99252.41;5018366;28;20463;-74
2023/07/02 08:39:27;;;;;;;3.85;1.23;;;;;;;19.59;79.02;99269.69;5027517;28;20061;-74
2023/07/02 08:41:54;;;;;;;7.20;1.70;;;;;;;19.76;81.74;99285.78;5028879;28;20054;-74
2023/07/02 08:44:22;;;;;;;5.43;1.20;;;;;;;19.45;79.90;99270.22;5020472;28;20551;-74
2023/07/02 08:46:50;;;;;;;5.18;0.93;;;;;;;19.28;80.44;99280.66;5019786;28;20103;-74
2023/07/02 08:49:17;;;;;;;4.57;1.13;;;;;;;19.89;78.93;99271.13;5018218;28;20045;-74
2023/07/02 08:51:45;;;;;;;3.65;1.00;;;;;;;20.29;77.63;99272.44;5037494;28;20052;-74
2023/07/02 08:54:14;;;;;;;3.13;0.90;;;;;;;20.71;75.10;99272.72;5029953;28;20050;-73
2023/07/02 08:56:41;;;;;;;4.13;1.10;;;;;;;20.46;74.62;99259.25;5026347;28;20123;-74
2023/07/02 08:59:08;;;;;;;4.40;0.90;;;;;;;20.11;71.98;99284.91;5032492;28;20046;-74
2023/07/02 09:01:52;;;;;;;4.28;1.00;;;;;;;20.25;71.76;99302.94;5032841;28;20124;-74
2023/07/02 09:04:20;;;;;;;3.30;1.13;;;;;;;19.95;73.41;99296.25;5033001;28;20513;-74
2023/07/02 09:06:47;;;;;;;2.95;1.10;;;;;;;20.21;71.56;99298.13;5024693;28;20081;-74
2023/07/02 09:09:14;;;;;;;3.58;1.05;;;;;;;19.71;75.34;99302.97;5025688;28;20235;-74
2023/07/02 09:11:50;;;;;;;5.88;1.20;;;;;;;20.23;74.71;99325.38;5025750;28;20057;-74
2023/07/02 09:14:28;;;;;;;2.28;0.85;;;;;;;19.45;74.59;99334.72;5031781;28;20084;-74
2023/07/02 09:17:03;;;;;;;7.47;1.00;;;;;;;19.79;76.60;99331.47;5032695;28;20049;-74
2023/07/02 09:19:30;;;;;;;3.53;0.90;;;;;;;20.16;75.32;99332.28;5017985;28;20049;-74
2023/07/02 09:22:01;;;;;;;2.78;1.00;;;;;;;19.67;75.73;99329.97;5031898;28;20042;-74
2023/07/02 09:24:30;;;;;;;4.80;1.10;;;;;;;19.70;76.09;99316.41;5026168;28;20494;-73
2023/07/02 09:26:59;;;;;;;4.10;1.08;;;;;;;19.64;79.35;99317.03;5032979;28;20053;-73
2023/07/02 09:29:28;;;;;;;4.97;1.20;;;;;;;20.29;81.39;99319.41;5032267;28;20406;-73
2023/07/02 09:31:59;;;;;;;4.53;1.00;;;;;;;20.88;76.45;99316.19;5029145;28;20085;-74
2023/07/02 09:34:37;;;;;;;6.15;1.23;;;;;;;21.25;72.52;99318.50;5016580;28;20054;-74
2023/07/02 09:37:05;;;;;;;4.25;1.13;;;;;;;20.14;74.31;99307.69;5028394;28;20048;-74
2023/07/02 09:39:36;;;;;;;4.85;1.00;;;;;;;19.66;76.16;99312.41;5020731;28;20152;-74
2023/07/02 09:42:06;;;;;;;4.93;1.13;;;;;;;19.31;79.60;99311.34;5030426;28;20041;-73
2023/07/02 09:44:34;;;;;;;3.90;1.00;;;;;;;19.27;82.73;99307.34;5025579;28;20472;-73
2023/07/02 09:47:04;;;;;;;6.25;1.17;;;;;;;19.71;79.07;99316.25;5020861;28;20140;-73
2023/07/02 09:49:35;;;;;;;2.88;0.90;;;;;;;19.88;77.87;99303.16;5044031;28;20480;-74
